Abilene/Dyess AFB, Texas
Current Conditions -  °F | °C
As of 4:58 AM on Saturday 01 Nov 2014 (Local Time) from KDYS Reporting Station
Clear Clear  
Wind Chill: 40°   Ceiling: Unl
Heat Index: 40°   Visibility: 10mi
Dew Point: 32°   Wind: 1mph
Humidity: 71%   Direction: 230°SW
Pressure: 30.33"   Gusts: NA
Location:  32.43°N, 99.83°W
Report Text: KDYS 010958Z AUTO 23001KT 10SM CLR 05/00 A3033 RMK AO2 SLP259 T00471002 $
Loading
Personal Weather Stations






























Interactive Weather Map
Tropical Storm Tracking
New forecast layout! Learn more

10-Day Weather Forecast

Advertisements
Track Severe Weather on mobile